Time;durP1;ratioP1;P1;durP2;ratioP2;P2;SDS_P1;SDS_P2;PMS_P1;PMS_P2;Temp;Humidity;BMP_temperature;BMP_pressure;BME280_temperature;BME280_humidity;BME280_pressure;Samples;Min_cycle;Max_cycle;Signal;HPM_P1;HPM_P2
2021/08/25 00:00:21;;;;;;;;;;;;;;;20.42;64.54;100872.27;457556;115;921581;-75
2021/08/25 00:01:25;;;;;;;;;;;;;;;20.40;64.60;100873.38;456712;113;921606;-76
2021/08/25 00:02:29;;;;;;;;;;;;;;;20.41;64.65;100876.98;460998;113;921663;-75
2021/08/25 00:03:32;;;;;;;;;;;;;;;20.40;64.73;100878.08;462506;113;921525;-75
2021/08/25 00:04:37;;;;;;;;;;;;;;;20.39;64.72;100880.05;461908;114;921457;-76
2021/08/25 00:05:40;;;;;;;;;;;;;;;20.40;64.73;100883.63;460643;114;921360;-76
2021/08/25 00:06:44;;;;;;;;;;;;;;;20.40;64.67;100878.91;462596;113;921576;-76
2021/08/25 00:07:47;;;;;;;;;;;;;;;20.42;64.59;100881.42;462657;113;921547;-77
2021/08/25 00:08:50;;;;;;;;;;;;;;;20.42;64.53;100881.42;460151;113;921533;-77
2021/08/25 00:09:53;;;;;;;;;;;;;;;20.43;64.54;100882.26;460644;114;922169;-75
2021/08/25 00:10:57;;;;;;;;;;;;;;;20.44;64.53;100886.70;459367;113;921620;-74
2021/08/25 00:12:00;;;;;;;;;;;;;;;20.45;64.56;100888.37;458416;114;921556;-76
2021/08/25 00:13:06;;;;;;;;;;;;;;;20.44;64.57;100884.77;460541;111;921584;-76
2021/08/25 00:14:08;;;;;;;;;;;;;;;20.45;64.65;100882.83;460875;113;921557;-76
2021/08/25 00:15:12;;;;;;;;;;;;;;;20.44;64.74;100883.92;461728;113;921454;-77
2021/08/25 00:16:15;;;;;;;;;;;;;;;20.44;64.77;100889.47;459626;113;921640;-76
2021/08/25 00:17:19;;;;;;;;;;;;;;;20.44;64.76;100887.53;463714;113;921488;-77
2021/08/25 00:18:22;;;;;;;;;;;;;;;20.44;64.75;100887.53;460547;112;921554;-77
2021/08/25 00:19:25;;;;;;;;;;;;;;;20.43;64.72;100880.32;461958;113;921525;-77
2021/08/25 00:20:28;;;;;;;;;;;;;;;20.44;64.73;100883.92;461642;114;921617;-77
2021/08/25 00:21:31;;;;;;;;;;;;;;;20.43;64.82;100880.32;461079;114;921548;-77
2021/08/25 00:22:34;;;;;;;;;;;;;;;20.42;64.96;100886.12;461711;114;921602;-77
2021/08/25 00:23:37;;;;;;;;;;;;;;;20.40;65.06;100878.08;461713;113;921551;-77
2021/08/25 00:24:40;;;;;;;;;;;;;;;20.39;65.15;100881.98;461546;113;921539;-77
2021/08/25 00:25:45;;;;;;;;;;;;;;;20.36;65.15;100871.43;461691;113;921576;-78
2021/08/25 00:26:48;;;;;;;;;;;;;;;20.33;65.26;100877.53;462181;113;921670;-77
2021/08/25 00:27:51;;;;;;;;;;;;;;;20.31;65.35;100874.16;462096;113;921612;-78
2021/08/25 00:28:54;;;;;;;;;;;;;;;20.30;65.37;100870.55;461438;113;921659;-78
2021/08/25 00:29:58;;;;;;;;;;;;;;;20.28;65.37;100864.47;460988;113;921655;-77
2021/08/25 00:31:01;;;;;;;;;;;;;;;20.28;65.44;100872.78;461268;113;921655;-77
2021/08/25 00:32:04;;;;;;;;;;;;;;;20.26;65.49;100869.44;460745;113;921502;-77
2021/08/25 00:33:08;;;;;;;;;;;;;;;20.26;65.51;100872.20;460671;113;921686;-77
2021/08/25 00:34:11;;;;;;;;;;;;;;;20.26;65.48;100872.20;460164;113;921655;-77
2021/08/25 00:35:14;;;;;;;;;;;;;;;20.26;65.49;100865.83;462909;113;921584;-76
2021/08/25 00:36:17;;;;;;;;;;;;;;;20.25;65.55;100864.16;460986;113;921484;-77
2021/08/25 00:37:20;;;;;;;;;;;;;;;20.23;65.68;100861.66;461070;113;921642;-76
2021/08/25 00:38:23;;;;;;;;;;;;;;;20.22;65.75;100859.18;460520;113;921640;-76
2021/08/25 00:39:26;;;;;;;;;;;;;;;20.21;65.65;100851.97;463106;113;921563;-77
2021/08/25 00:40:30;;;;;;;;;;;;;;;20.16;65.54;100861.10;455749;115;921865;-76
2021/08/25 00:41:33;;;;;;;;;;;;;;;20.15;65.57;100858.59;456096;114;921645;-77
2021/08/25 00:42:36;;;;;;;;;;;;;;;20.13;65.69;100858.02;461871;113;921528;-76
2021/08/25 00:43:41;;;;;;;;;;;;;;;20.11;65.78;100852.78;462413;113;921577;-78
2021/08/25 00:44:44;;;;;;;;;;;;;;;20.11;65.81;100858.31;461852;113;921547;-76
2021/08/25 00:45:47;;;;;;;;;;;;;;;20.11;65.96;100857.48;461004;113;921583;-77
2021/08/25 00:46:50;;;;;;;;;;;;;;;20.12;65.92;100859.16;461027;113;921666;-78
2021/08/25 00:47:53;;;;;;;;;;;;;;;20.12;65.93;100853.61;461853;113;921622;-77
2021/08/25 00:48:57;;;;;;;;;;;;;;;20.13;65.85;100858.02;461091;113;921580;-75
2021/08/25 00:50:00;;;;;;;;;;;;;;;20.14;65.74;100857.76;461413;113;921592;-77
2021/08/25 00:51:04;;;;;;;;;;;;;;;20.15;65.66;100856.66;460967;114;921587;-77
2021/08/25 00:52:07;;;;;;;;;;;;;;;20.16;65.69;100860.27;461204;113;922030;-76
2021/08/25 00:53:11;;;;;;;;;;;;;;;20.17;65.72;100856.40;459821;113;921644;-76
2021/08/25 00:54:17;;;;;;;;;;;;;;;20.18;65.70;100858.06;459256;114;921662;-77
2021/08/25 00:55:20;;;;;;;;;;;;;;;20.18;65.71;100861.64;459812;113;921533;-77
2021/08/25 00:56:24;;;;;;;;;;;;;;;20.19;65.67;100851.40;459736;113;922006;-77
2021/08/25 00:57:27;;;;;;;;;;;;;;;20.19;65.70;100862.47;460409;113;921745;-77
2021/08/25 00:58:30;;;;;;;;;;;;;;;20.18;65.71;100858.88;460118;113;921615;-77
2021/08/25 00:59:33;;;;;;;;;;;;;;;20.18;65.78;100856.11;459771;114;921537;-77
2021/08/25 01:00:47;;;;;;;;;;;;;;;20.18;65.75;100847.80;461084;113;921610;-77
2021/08/25 01:01:53;;;;;;;;;;;;;;;20.17;65.70;100850.86;459761;113;921547;-77
2021/08/25 01:03:07;;;;;;;;;;;;;;;20.15;65.70;100851.13;459291;113;921626;-77
2021/08/25 01:04:15;;;;;;;;;;;;;;;20.14;65.63;100851.39;460576;113;921731;-78
2021/08/25 01:05:18;;;;;;;;;;;;;;;20.12;65.61;100848.91;461214;113;921523;-78
2021/08/25 01:06:22;;;;;;;;;;;;;;;20.12;65.60;100854.45;443770;117;921517;-77
2021/08/25 01:07:36;;;;;;;;;;;;;;;20.12;65.67;100848.91;454180;115;921483;-78
2021/08/25 01:08:39;;;;;;;;;;;;;;;20.14;65.65;100846.69;453579;114;921787;-78
2021/08/25 01:09:42;;;;;;;;;;;;;;;20.15;65.64;100848.36;446568;117;921543;-79
2021/08/25 01:10:45;;;;;;;;;;;;;;;20.15;65.48;100841.98;461884;113;921585;-79
2021/08/25 01:11:48;;;;;;;;;;;;;;;20.13;65.40;100836.70;459831;113;921730;-77
2021/08/25 01:12:53;;;;;;;;;;;;;;;20.13;65.25;100838.64;461769;113;921725;-78
2021/08/25 01:13:57;;;;;;;;;;;;;;;20.11;65.14;100838.10;460477;113;921738;-78
2021/08/25 01:15:00;;;;;;;;;;;;;;;20.09;65.15;100837.53;460143;114;921572;-77
2021/08/25 01:16:03;;;;;;;;;;;;;;;20.08;65.34;100842.23;461656;113;921585;-77
2021/08/25 01:17:08;;;;;;;;;;;;;;;20.09;65.44;100843.06;460787;114;921587;-77
2021/08/25 01:18:13;;;;;;;;;;;;;;;20.09;65.48;100832.83;459945;114;921916;-78
2021/08/25 01:19:17;;;;;;;;;;;;;;;20.11;65.54;100840.87;459980;113;921780;-77
2021/08/25 01:20:24;;;;;;;;;;;;;;;20.11;65.57;100832.56;460781;113;921726;-77
2021/08/25 01:21:28;;;;;;;;;;;;;;;20.13;65.54;100841.41;460938;113;921633;-76
2021/08/25 01:22:31;;;;;;;;;;;;;;;20.14;65.54;100838.38;460837;114;921499;-76
2021/08/25 01:23:43;;;;;;;;;;;;;;;20.16;65.54;100843.66;461793;113;922051;-74
2021/08/25 01:24:50;;;;;;;;;;;;;;;20.17;65.48;100843.39;460290;113;921666;-75
2021/08/25 01:25:55;;;;;;;;;;;;;;;20.17;65.58;100840.63;460520;113;921753;-76
2021/08/25 01:26:59;;;;;;;;;;;;;;;20.16;65.67;100841.72;460956;113;921592;-75
2021/08/25 01:28:04;;;;;;;;;;;;;;;20.17;65.71;100840.63;461495;113;921641;-76
2021/08/25 01:29:15;;;;;;;;;;;;;;;20.17;65.69;100832.31;460825;114;921601;-75
2021/08/25 01:30:19;;;;;;;;;;;;;;;20.17;65.66;100837.86;454245;114;921814;-75
2021/08/25 01:31:22;;;;;;;;;;;;;;;20.17;65.66;100839.78;462078;113;921638;-76
2021/08/25 01:32:26;;;;;;;;;;;;;;;20.16;65.58;100838.12;461388;113;921589;-77
2021/08/25 01:33:29;;;;;;;;;;;;;;;20.13;65.56;100836.70;462078;113;921579;-77
2021/08/25 01:34:34;;;;;;;;;;;;;;;20.13;65.58;100833.11;461459;114;922116;-77
2021/08/25 01:35:38;;;;;;;;;;;;;;;20.12;65.63;100837.84;459025;113;921739;-77
2021/08/25 01:36:42;;;;;;;;;;;;;;;20.11;65.65;100833.40;461589;113;921547;-76
2021/08/25 01:37:46;;;;;;;;;;;;;;;20.12;65.65;100834.23;460704;113;921580;-76
2021/08/25 01:38:54;;;;;;;;;;;;;;;20.11;65.64;100836.17;459353;113;921623;-77
2021/08/25 01:39:57;;;;;;;;;;;;;;;20.10;65.70;100837.27;461441;113;921531;-77
2021/08/25 01:41:01;;;;;;;;;;;;;;;20.10;65.62;100840.03;460209;113;921637;-77
2021/08/25 01:42:04;;;;;;;;;;;;;;;20.09;65.56;100835.59;458772;113;921542;-76
2021/08/25 01:43:08;;;;;;;;;;;;;;;20.08;65.49;100836.69;461651;113;921562;-77
2021/08/25 01:44:11;;;;;;;;;;;;;;;20.08;65.45;100841.39;460534;113;921608;-77
2021/08/25 01:45:14;;;;;;;;;;;;;;;20.06;65.46;100838.92;461732;113;921731;-78
2021/08/25 01:46:22;;;;;;;;;;;;;;;20.03;65.48;100836.67;462340;114;921452;-77
2021/08/25 01:47:25;;;;;;;;;;;;;;;20.02;65.51;100840.55;461348;113;921504;-76
2021/08/25 01:48:32;;;;;;;;;;;;;;;20.01;65.57;100832.53;460033;113;921527;-77
2021/08/25 01:49:35;;;;;;;;;;;;;;;19.98;65.58;100834.73;460157;114;921778;-75
2021/08/25 01:50:39;;;;;;;;;;;;;;;19.95;65.58;100831.68;460683;113;921742;-78
2021/08/25 01:51:42;;;;;;;;;;;;;;;19.93;65.61;100831.95;461133;113;921738;-78
2021/08/25 01:52:46;;;;;;;;;;;;;;;19.90;65.69;100828.89;460837;114;922072;-76
2021/08/25 01:53:49;;;;;;;;;;;;;;;19.88;65.81;100831.09;459405;114;921553;-78
2021/08/25 01:54:52;;;;;;;;;;;;;;;19.85;65.93;100826.91;461959;113;921582;-77
2021/08/25 01:55:55;;;;;;;;;;;;;;;19.82;66.02;100829.39;461276;113;921517;-78
2021/08/25 01:56:58;;;;;;;;;;;;;;;19.79;66.14;100833.52;461298;114;921499;-78
2021/08/25 01:58:01;;;;;;;;;;;;;;;19.75;66.27;100835.17;460726;113;921364;-78
2021/08/25 01:59:05;;;;;;;;;;;;;;;19.73;66.45;100828.26;461085;113;921519;-79
2021/08/25 02:00:09;;;;;;;;;;;;;;;19.72;66.52;100835.72;461370;113;921634;-77
2021/08/25 02:01:12;;;;;;;;;;;;;;;19.70;66.61;100834.31;461470;113;921921;-79
2021/08/25 02:02:15;;;;;;;;;;;;;;;19.68;66.68;100825.47;459518;113;921684;-79
2021/08/25 02:03:18;;;;;;;;;;;;;;;19.67;66.72;100841.23;460686;113;921593;-79
2021/08/25 02:04:22;;;;;;;;;;;;;;;19.68;66.69;100842.06;461673;113;921586;-78
2021/08/25 02:05:25;;;;;;;;;;;;;;;19.68;66.63;100844.84;459028;113;921617;-79
2021/08/25 02:06:29;;;;;;;;;;;;;;;19.68;66.58;100842.06;463444;113;921634;-79
2021/08/25 02:07:32;;;;;;;;;;;;;;;19.69;66.57;100844.55;460160;113;921501;-81
2021/08/25 02:08:36;;;;;;;;;;;;;;;19.69;66.65;100836.25;460815;113;921820;-79
2021/08/25 02:09:39;;;;;;;;;;;;;;;19.69;66.71;100847.31;463434;114;921499;-79
2021/08/25 02:10:43;;;;;;;;;;;;;;;19.68;66.70;100842.91;460199;113;921514;-80
2021/08/25 02:11:46;;;;;;;;;;;;;;;19.70;66.65;100842.61;461766;114;921611;-79
2021/08/25 02:12:49;;;;;;;;;;;;;;;19.71;66.55;100845.12;461362;114;921606;-79
2021/08/25 02:13:52;;;;;;;;;;;;;;;19.72;66.53;100849.56;462603;115;921546;-79
2021/08/25 02:14:55;;;;;;;;;;;;;;;19.73;66.48;100842.09;461533;113;921610;-78
2021/08/25 02:15:59;;;;;;;;;;;;;;;19.74;66.45;100854.80;461876;113;921630;-79
2021/08/25 02:17:02;;;;;;;;;;;;;;;19.74;66.41;100852.03;462076;113;921451;-78
2021/08/25 02:18:06;;;;;;;;;;;;;;;19.73;66.35;100848.46;461774;113;921604;-77
2021/08/25 02:19:09;;;;;;;;;;;;;;;19.74;66.26;100852.87;461426;113;921551;-76
2021/08/25 02:20:12;;;;;;;;;;;;;;;19.75;66.16;100845.41;461043;113;921563;-77
2021/08/25 02:21:15;;;;;;;;;;;;;;;19.76;66.09;100841.54;461169;113;921600;-76
2021/08/25 02:22:19;;;;;;;;;;;;;;;19.75;66.00;100843.47;461537;113;921610;-77
2021/08/25 02:23:22;;;;;;;;;;;;;;;19.76;65.93;100841.54;460722;113;921692;-77
2021/08/25 02:24:25;;;;;;;;;;;;;;;19.75;65.86;100837.94;461299;114;921602;-78
2021/08/25 02:25:28;;;;;;;;;;;;;;;19.75;65.80;100837.94;459830;114;921637;-77
2021/08/25 02:26:31;;;;;;;;;;;;;;;19.75;65.79;100843.47;460464;113;921720;-76
2021/08/25 02:27:35;;;;;;;;;;;;;;;19.74;65.79;100840.97;460182;113;921715;-78
2021/08/25 02:28:38;;;;;;;;;;;;;;;19.74;65.81;100840.97;459157;114;921597;-77
2021/08/25 02:29:41;;;;;;;;;;;;;;;19.73;65.84;100839.33;458665;113;921589;-77
2021/08/25 02:30:44;;;;;;;;;;;;;;;19.71;65.83;100845.12;462670;112;921671;-76
2021/08/25 02:31:48;;;;;;;;;;;;;;;19.72;65.87;100845.95;460806;112;921546;-78
2021/08/25 02:32:51;;;;;;;;;;;;;;;19.70;65.89;100851.75;459788;114;921456;-78
2021/08/25 02:33:54;;;;;;;;;;;;;;;19.70;65.97;100842.61;462025;113;921464;-77
2021/08/25 02:34:57;;;;;;;;;;;;;;;19.69;66.01;100843.70;462510;112;921539;-78
2021/08/25 02:36:00;;;;;;;;;;;;;;;19.68;66.06;100839.30;463077;112;921828;-76
2021/08/25 02:37:03;;;;;;;;;;;;;;;19.68;66.15;100842.06;460404;112;921532;-78
2021/08/25 02:38:07;;;;;;;;;;;;;;;19.67;66.20;100849.53;462709;113;921490;-78
2021/08/25 02:39:10;;;;;;;;;;;;;;;19.66;66.23;100844.27;462156;112;922144;-77
2021/08/25 02:40:13;;;;;;;;;;;;;;;19.66;66.29;100838.73;461550;112;921511;-78
2021/08/25 02:41:17;;;;;;;;;;;;;;;19.65;66.33;100839.82;462180;113;921640;-77
2021/08/25 02:42:21;;;;;;;;;;;;;;;19.64;66.42;100843.69;461636;114;921590;-78
2021/08/25 02:43:24;;;;;;;;;;;;;;;19.62;66.49;100843.97;462531;112;921639;-77
2021/08/25 02:44:27;;;;;;;;;;;;;;;19.61;66.50;100841.47;461786;113;921533;-77
2021/08/25 02:45:30;;;;;;;;;;;;;;;19.60;66.57;100843.40;460782;114;921545;-77
2021/08/25 02:46:33;;;;;;;;;;;;;;;19.59;66.64;100847.26;460663;112;921682;-77
2021/08/25 02:47:36;;;;;;;;;;;;;;;19.56;66.63;100845.88;461262;112;921610;-78
2021/08/25 02:48:40;;;;;;;;;;;;;;;19.55;66.73;100843.37;460784;112;921643;-77
2021/08/25 02:49:45;;;;;;;;;;;;;;;19.54;66.82;100855.53;459769;115;921600;-77
2021/08/25 02:50:48;;;;;;;;;;;;;;;19.51;66.88;100854.15;459750;113;921535;-77
2021/08/25 02:51:51;;;;;;;;;;;;;;;19.50;66.99;100854.41;460525;112;921473;-77
2021/08/25 02:52:54;;;;;;;;;;;;;;;19.50;67.00;100855.24;460086;112;921482;-78
2021/08/25 02:53:57;;;;;;;;;;;;;;;19.49;67.04;100853.57;462469;115;921501;-78
2021/08/25 02:55:01;;;;;;;;;;;;;;;19.48;67.04;100854.66;460588;112;921575;-78
2021/08/25 02:56:04;;;;;;;;;;;;;;;19.47;67.19;100852.16;460832;113;921567;-76
2021/08/25 02:57:07;;;;;;;;;;;;;;;19.48;67.25;100859.36;461664;113;921553;-78
2021/08/25 02:58:11;;;;;;;;;;;;;;;19.47;67.32;100858.52;463844;112;921588;-78
2021/08/25 02:59:15;;;;;;;;;;;;;;;19.48;67.36;100859.36;463255;112;921512;-77
2021/08/25 03:00:18;;;;;;;;;;;;;;;19.48;67.31;100854.66;460446;112;921597;-78
2021/08/25 03:01:21;;;;;;;;;;;;;;;19.48;67.44;100860.20;462989;112;921505;-77
2021/08/25 03:02:25;;;;;;;;;;;;;;;19.49;67.47;100861.03;461421;112;921541;-78
2021/08/25 03:03:28;;;;;;;;;;;;;;;19.49;67.51;100861.03;462432;112;921623;-77
2021/08/25 03:04:32;;;;;;;;;;;;;;;19.49;67.54;100855.50;454270;115;921729;-77
2021/08/25 03:05:35;;;;;;;;;;;;;;;19.50;67.58;100865.47;454144;115;921597;-78
2021/08/25 03:06:38;;;;;;;;;;;;;;;19.50;67.55;100857.17;442341;117;921622;-78
2021/08/25 03:07:41;;;;;;;;;;;;;;;19.51;67.56;100867.98;443853;117;921697;-78
2021/08/25 03:08:44;;;;;;;;;;;;;;;19.52;67.52;100866.02;455824;114;921592;-76
2021/08/25 03:09:47;;;;;;;;;;;;;;;19.52;67.52;100864.09;452877;115;921584;-78
2021/08/25 03:10:50;;;;;;;;;;;;;;;19.52;67.58;100866.85;454105;113;921520;-78
2021/08/25 03:11:53;;;;;;;;;;;;;;;19.53;67.63;100865.76;454582;114;921623;-77
2021/08/25 03:12:56;;;;;;;;;;;;;;;19.54;67.68;100872.13;454347;114;921703;-77
2021/08/25 03:13:59;;;;;;;;;;;;;;;19.54;67.70;100875.73;451525;115;921512;-77
2021/08/25 03:15:04;;;;;;;;;;;;;;;19.55;67.70;100876.56;454376;113;921562;-77
2021/08/25 03:16:07;;;;;;;;;;;;;;;19.54;67.63;100878.49;454213;114;921676;-78
2021/08/25 03:17:13;;;;;;;;;;;;;;;19.53;67.68;100878.75;455388;114;921538;-78
2021/08/25 03:18:16;;;;;;;;;;;;;;;19.52;67.69;100875.15;461692;112;921714;-78
2021/08/25 03:19:19;;;;;;;;;;;;;;;19.52;67.64;100877.91;462134;112;921707;-78
2021/08/25 03:20:22;;;;;;;;;;;;;;;19.52;67.64;100883.45;461605;112;921616;-79
2021/08/25 03:21:25;;;;;;;;;;;;;;;19.52;67.65;100879.84;462748;113;921533;-77
2021/08/25 03:22:29;;;;;;;;;;;;;;;19.52;67.65;100877.91;460703;112;921503;-79
2021/08/25 03:23:32;;;;;;;;;;;;;;;19.52;67.56;100883.45;461791;112;921443;-78
2021/08/25 03:24:35;;;;;;;;;;;;;;;19.53;67.48;100879.59;462970;112;921509;-78
2021/08/25 03:25:38;;;;;;;;;;;;;;;19.56;67.42;100878.23;461866;112;921495;-78
2021/08/25 03:26:41;;;;;;;;;;;;;;;19.57;67.36;100882.67;462568;112;922041;-76
2021/08/25 03:27:45;;;;;;;;;;;;;;;19.61;67.31;100880.19;462987;112;921723;-76
2021/08/25 03:28:48;;;;;;;;;;;;;;;19.62;67.32;100881.87;462528;112;921595;-79
2021/08/25 03:29:51;;;;;;;;;;;;;;;19.63;67.35;100878.81;461090;112;921706;-75
2021/08/25 03:30:57;;;;;;;;;;;;;;;19.66;67.33;100877.45;461781;112;921690;-78
2021/08/25 03:31:59;;;;;;;;;;;;;;;19.67;67.32;100879.12;461812;113;921552;-78
2021/08/25 03:33:06;;;;;;;;;;;;;;;19.67;67.36;100874.44;461443;113;921689;-78
2021/08/25 03:34:09;;;;;;;;;;;;;;;19.67;67.36;100879.12;460661;113;921617;-79
2021/08/25 03:35:12;;;;;;;;;;;;;;;19.67;67.43;100879.12;460558;113;921622;-78
2021/08/25 03:36:17;;;;;;;;;;;;;;;19.66;67.46;100881.06;461159;113;921517;-79
2021/08/25 03:37:20;;;;;;;;;;;;;;;19.67;67.45;100879.97;459679;113;921589;-79
2021/08/25 03:38:23;;;;;;;;;;;;;;;19.67;67.43;100881.89;460572;113;922033;-78
2021/08/25 03:39:27;;;;;;;;;;;;;;;19.67;67.42;100876.36;459857;114;921534;-78
2021/08/25 03:40:30;;;;;;;;;;;;;;;19.65;67.48;100884.08;461367;114;921615;-77
2021/08/25 03:41:33;;;;;;;;;;;;;;;19.64;67.46;100871.34;462742;113;921624;-79
2021/08/25 03:42:36;;;;;;;;;;;;;;;19.63;67.39;100878.81;460591;113;921558;-77
2021/08/25 03:43:40;;;;;;;;;;;;;;;19.62;67.50;100879.94;459574;113;921647;-77
2021/08/25 03:44:43;;;;;;;;;;;;;;;19.61;67.61;100881.03;460176;114;921565;-78
2021/08/25 03:45:46;;;;;;;;;;;;;;;19.58;67.61;100876.85;460350;113;921518;-76
2021/08/25 03:46:49;;;;;;;;;;;;;;;19.57;67.59;100880.71;461531;113;921939;-76
2021/08/25 03:47:53;;;;;;;;;;;;;;;19.55;67.64;100876.56;460689;113;921641;-77
2021/08/25 03:48:56;;;;;;;;;;;;;;;19.53;67.64;100879.59;453017;115;921665;-78
2021/08/25 03:49:59;;;;;;;;;;;;;;;19.52;67.70;100888.14;451008;114;921584;-76
2021/08/25 03:51:02;;;;;;;;;;;;;;;19.51;67.77;100878.20;454159;114;921655;-77
2021/08/25 03:52:05;;;;;;;;;;;;;;;19.50;67.82;100869.07;453861;115;921700;-77
2021/08/25 03:53:08;;;;;;;;;;;;;;;19.51;67.86;100876.27;453238;115;921666;-76
2021/08/25 03:54:12;;;;;;;;;;;;;;;19.50;67.90;100874.60;455113;114;921605;-77
2021/08/25 03:55:15;;;;;;;;;;;;;;;19.51;67.94;100873.51;453006;114;922039;-77
2021/08/25 03:56:18;;;;;;;;;;;;;;;19.50;67.96;100880.13;453430;114;921782;-78
2021/08/25 03:57:21;;;;;;;;;;;;;;;19.51;67.97;100875.44;452000;117;922157;-77
2021/08/25 03:58:26;;;;;;;;;;;;;;;19.50;67.95;100874.60;450945;114;922079;-76
2021/08/25 03:59:29;;;;;;;;;;;;;;;19.52;67.94;100875.15;451869;115;921505;-76
2021/08/25 04:00:32;;;;;;;;;;;;;;;19.55;67.88;100873.80;453359;115;921801;-75
2021/08/25 04:01:36;;;;;;;;;;;;;;;19.57;67.76;100874.37;454873;114;921635;-77
2021/08/25 04:02:40;;;;;;;;;;;;;;;19.61;67.64;100877.42;454915;114;921534;-76
2021/08/25 04:03:44;;;;;;;;;;;;;;;19.63;67.65;100876.05;453178;115;921566;-76
2021/08/25 04:04:47;;;;;;;;;;;;;;;19.68;67.58;100878.03;451828;115;921616;-78
2021/08/25 04:05:50;;;;;;;;;;;;;;;19.71;67.51;100878.31;453618;114;921631;-77
2021/08/25 04:06:54;;;;;;;;;;;;;;;19.75;67.48;100875.84;454013;114;921542;-76
2021/08/25 04:07:57;;;;;;;;;;;;;;;19.78;67.38;100875.32;453107;115;921421;-76
2021/08/25 04:09:00;;;;;;;;;;;;;;;19.82;67.43;100874.51;454033;115;921485;-77
2021/08/25 04:10:04;;;;;;;;;;;;;;;19.85;67.38;100876.72;454617;114;921672;-78
2021/08/25 04:11:07;;;;;;;;;;;;;;;19.89;67.44;100877.03;455461;114;921593;-77
2021/08/25 04:12:12;;;;;;;;;;;;;;;19.91;67.51;100877.58;461769;113;921576;-77
2021/08/25 04:13:15;;;;;;;;;;;;;;;19.93;67.49;100872.62;452535;115;921724;-77
2021/08/25 04:14:18;;;;;;;;;;;;;;;19.95;67.39;100876.80;451474;115;921841;-77
2021/08/25 04:15:22;;;;;;;;;;;;;;;19.96;67.33;100878.44;460900;113;921535;-78
2021/08/25 04:16:25;;;;;;;;;;;;;;;19.97;67.29;100880.11;461948;113;921564;-78
2021/08/25 04:17:28;;;;;;;;;;;;;;;19.98;67.13;100873.48;459806;113;921526;-79
2021/08/25 04:18:32;;;;;;;;;;;;;;;19.97;66.97;100874.58;459914;113;921595;-79
2021/08/25 04:19:35;;;;;;;;;;;;;;;19.97;66.96;100871.81;459357;113;921636;-77
2021/08/25 04:20:38;;;;;;;;;;;;;;;19.97;66.93;100868.20;459428;113;921651;-77
2021/08/25 04:21:41;;;;;;;;;;;;;;;19.97;66.90;100873.73;457685;113;921642;-77
2021/08/25 04:22:44;;;;;;;;;;;;;;;19.97;66.87;100874.58;459998;113;921433;-76
2021/08/25 04:23:47;;;;;;;;;;;;;;;19.97;66.75;100869.04;460519;113;921633;-77
2021/08/25 04:24:50;;;;;;;;;;;;;;;19.95;66.67;100865.73;459446;113;921517;-77
2021/08/25 04:25:53;;;;;;;;;;;;;;;19.95;66.65;100870.43;461326;113;921589;-75
2021/08/25 04:26:56;;;;;;;;;;;;;;;19.94;66.60;100875.13;461066;113;921736;-76
2021/08/25 04:27:59;;;;;;;;;;;;;;;19.94;66.52;100875.13;462165;114;921539;-76
2021/08/25 04:29:03;;;;;;;;;;;;;;;19.94;66.49;100871.52;459712;113;921500;-77
2021/08/25 04:30:06;;;;;;;;;;;;;;;19.93;66.49;100873.45;460230;113;921710;-77
2021/08/25 04:31:09;;;;;;;;;;;;;;;19.95;66.51;100878.73;454862;116;921718;-76
2021/08/25 04:32:12;;;;;;;;;;;;;;;19.94;66.49;100877.89;457713;114;921766;-77
2021/08/25 04:33:16;;;;;;;;;;;;;;;19.96;66.47;100877.60;463061;112;921489;-77
2021/08/25 04:34:19;;;;;;;;;;;;;;;19.97;66.33;100873.73;463762;112;921996;-77
2021/08/25 04:35:22;;;;;;;;;;;;;;;19.99;66.22;100877.91;462525;113;921519;-76
2021/08/25 04:36:26;;;;;;;;;;;;;;;20.00;66.23;100875.98;462550;112;921483;-77
2021/08/25 04:37:29;;;;;;;;;;;;;;;20.02;66.26;100873.76;461985;112;921623;-76
2021/08/25 04:38:32;;;;;;;;;;;;;;;20.05;66.19;100872.40;461694;112;921617;-75
2021/08/25 04:39:35;;;;;;;;;;;;;;;20.07;66.14;100870.20;462552;112;921621;-76
2021/08/25 04:40:38;;;;;;;;;;;;;;;20.10;66.07;100878.79;454979;114;921607;-76
2021/08/25 04:41:42;;;;;;;;;;;;;;;20.13;65.99;100869.93;454898;112;921708;-76
2021/08/25 04:42:45;;;;;;;;;;;;;;;20.16;66.09;100872.17;460759;112;921664;-75
2021/08/25 04:43:48;;;;;;;;;;;;;;;20.18;66.04;100869.14;461107;113;921546;-76
2021/08/25 04:44:52;;;;;;;;;;;;;;;20.19;66.01;100874.39;461346;113;921624;-76
2021/08/25 04:45:55;;;;;;;;;;;;;;;20.21;65.98;100868.59;460691;112;921591;-77
2021/08/25 04:46:58;;;;;;;;;;;;;;;20.22;65.90;100871.09;461048;112;921703;-77
2021/08/25 04:48:01;;;;;;;;;;;;;;;20.24;66.03;100868.86;461771;112;921744;-78
2021/08/25 04:49:05;;;;;;;;;;;;;;;20.24;66.00;100862.49;460611;113;921580;-77
2021/08/25 04:50:09;;;;;;;;;;;;;;;20.24;65.95;100860.55;461254;112;921627;-82
2021/08/25 04:51:15;;;;;;;;;;;;;;;20.25;65.90;100861.39;463844;112;921625;-76
2021/08/25 04:52:18;;;;;;;;;;;;;;;20.25;65.82;100864.16;463746;112;921492;-77
2021/08/25 04:53:22;;;;;;;;;;;;;;;20.25;65.82;100867.77;461558;112;921513;-78
2021/08/25 04:54:25;;;;;;;;;;;;;;;20.26;65.80;100865.83;462367;112;921583;-78
2021/08/25 04:55:29;;;;;;;;;;;;;;;20.27;65.78;100865.57;463195;113;921589;-77
2021/08/25 04:56:32;;;;;;;;;;;;;;;20.28;65.79;100866.41;461732;113;921489;-78
2021/08/25 04:57:35;;;;;;;;;;;;;;;20.28;65.78;100872.78;462443;112;921584;-78
2021/08/25 04:58:38;;;;;;;;;;;;;;;20.29;65.80;100866.11;462538;112;921760;-78
2021/08/25 04:59:41;;;;;;;;;;;;;;;20.31;65.82;100872.25;462586;113;921652;-78
2021/08/25 05:00:46;;;;;;;;;;;;;;;20.31;65.85;100868.61;462103;112;921498;-78
2021/08/25 05:01:51;;;;;;;;;;;;;;;20.30;65.93;100865.02;462376;112;921604;-78
2021/08/25 05:02:55;;;;;;;;;;;;;;;20.31;65.97;100863.08;462063;113;921636;-77
2021/08/25 05:03:59;;;;;;;;;;;;;;;20.33;66.06;100872.83;462611;112;921533;-79
2021/08/25 05:05:02;;;;;;;;;;;;;;;20.35;66.12;100866.98;460982;113;921608;-80
2021/08/25 05:06:07;;;;;;;;;;;;;;;20.38;66.16;100870.06;461107;113;921722;-79
2021/08/25 05:07:12;;;;;;;;;;;;;;;20.39;66.14;100863.43;461333;112;921811;-79
2021/08/25 05:08:15;;;;;;;;;;;;;;;20.43;66.11;100866.47;461718;113;921635;-79
2021/08/25 05:09:18;;;;;;;;;;;;;;;20.45;66.10;100863.44;461162;112;921592;-76
2021/08/25 05:10:22;;;;;;;;;;;;;;;20.48;66.07;100877.56;462108;112;921689;-78
2021/08/25 05:11:25;;;;;;;;;;;;;;;20.50;66.09;100861.52;454853;114;921664;-80
2021/08/25 05:12:28;;;;;;;;;;;;;;;20.54;66.11;100870.94;453459;114;921608;-79
2021/08/25 05:13:32;;;;;;;;;;;;;;;20.56;66.04;100865.96;463434;112;921574;-80
2021/08/25 05:14:35;;;;;;;;;;;;;;;20.58;65.89;100866.50;462384;112;921616;-78
2021/08/25 05:15:40;;;;;;;;;;;;;;;20.60;65.86;100863.46;463219;113;921801;-75
2021/08/25 05:16:43;;;;;;;;;;;;;;;20.64;65.74;100870.11;463329;113;921592;-78
2021/08/25 05:17:47;;;;;;;;;;;;;;;20.66;65.61;100867.91;463403;112;921926;-80
2021/08/25 05:18:50;;;;;;;;;;;;;;;20.67;65.46;100873.19;464155;112;921683;-78
2021/08/25 05:19:54;;;;;;;;;;;;;;;20.69;65.30;100870.95;463197;112;921682;-77
2021/08/25 05:20:57;;;;;;;;;;;;;;;20.71;65.24;100863.20;462845;112;921587;-78
2021/08/25 05:22:01;;;;;;;;;;;;;;;20.74;65.16;100870.13;463127;112;921662;-78
2021/08/25 05:23:04;;;;;;;;;;;;;;;20.77;65.11;100867.66;462824;114;921546;-78